createdAt,value
2018-09-01T00:00:16.481Z,18.20
2018-09-01T00:01:16.466Z,17.70
2018-09-01T00:02:16.453Z,18.30
2018-09-01T00:03:16.446Z,18.40
2018-09-01T00:04:16.437Z,16.50
2018-09-01T00:05:16.433Z,17.00
2018-09-01T00:06:16.419Z,17.10
2018-09-01T00:07:16.415Z,16.60
2018-09-01T00:08:16.409Z,15.80
2018-09-01T00:09:16.398Z,16.30
2018-09-01T00:10:16.383Z,16.20
2018-09-01T00:11:16.471Z,16.60
2018-09-01T00:12:16.363Z,16.50
2018-09-01T00:13:16.360Z,15.80
2018-09-01T00:14:16.349Z,17.80
2018-09-01T00:15:16.343Z,16.80
2018-09-01T00:16:16.333Z,17.10
2018-09-01T00:17:16.322Z,16.50
2018-09-01T00:18:16.317Z,15.70
2018-09-01T00:19:16.311Z,16.60
2018-09-01T00:20:16.291Z,16.00
2018-09-01T00:21:16.283Z,17.00
2018-09-01T00:22:16.276Z,16.20
2018-09-01T00:23:16.269Z,14.20
2018-09-01T00:24:16.262Z,14.40
2018-09-01T00:25:16.249Z,14.30
2018-09-01T00:26:16.239Z,15.40
2018-09-01T00:27:16.230Z,14.20
2018-09-01T00:28:16.223Z,15.30
2018-09-01T00:29:16.215Z,15.10
2018-09-01T00:30:16.204Z,15.90
2018-09-01T00:31:16.195Z,15.30
2018-09-01T00:32:16.190Z,15.80
2018-09-01T00:33:16.179Z,14.90
2018-09-01T00:34:16.168Z,15.30
2018-09-01T00:35:16.161Z,14.60
2018-09-01T00:36:16.148Z,15.10
2018-09-01T00:37:16.164Z,16.80
2018-09-01T00:38:16.138Z,18.70
2018-09-01T00:39:16.128Z,19.50
2018-09-01T00:40:16.118Z,20.10
2018-09-01T00:41:16.105Z,18.10
2018-09-01T00:42:16.098Z,18.00
2018-09-01T00:43:16.096Z,18.60
2018-09-01T00:44:16.079Z,18.30
2018-09-01T00:45:16.075Z,18.50
2018-09-01T00:46:16.066Z,16.80
2018-09-01T00:47:16.050Z,16.60
2018-09-01T00:48:16.040Z,17.40
2018-09-01T00:49:16.034Z,16.40
2018-09-01T00:50:16.024Z,16.60
2018-09-01T00:51:16.018Z,15.50
2018-09-01T00:52:16.005Z,15.30
2018-09-01T00:53:16.000Z,16.50
2018-09-01T00:54:15.988Z,17.80
2018-09-01T00:55:15.979Z,16.00
2018-09-01T00:56:15.968Z,17.40
2018-09-01T00:57:15.960Z,17.00
2018-09-01T00:58:15.950Z,16.80
2018-09-01T00:59:15.944Z,15.90
2018-09-01T01:00:15.933Z,15.80
2018-09-01T01:01:15.929Z,15.90
2018-09-01T01:02:15.920Z,16.10
2018-09-01T01:03:15.908Z,17.40
2018-09-01T01:04:15.904Z,15.70
2018-09-01T01:05:15.895Z,18.00
2018-09-01T01:06:15.887Z,16.80
2018-09-01T01:07:15.878Z,17.00
2018-09-01T01:08:15.864Z,18.20
2018-09-01T01:09:15.853Z,16.70
2018-09-01T01:10:15.850Z,17.10
2018-09-01T01:11:15.841Z,16.50
2018-09-01T01:12:15.827Z,16.60
2018-09-01T01:13:15.817Z,16.70
2018-09-01T01:14:15.810Z,15.70
2018-09-01T01:15:15.806Z,18.00
2018-09-01T01:16:15.792Z,18.50
2018-09-01T01:17:15.785Z,17.10
2018-09-01T01:18:15.781Z,17.60
2018-09-01T01:19:15.767Z,17.70
2018-09-01T01:20:15.759Z,17.40
2018-09-01T01:21:15.754Z,17.80
2018-09-01T01:22:15.747Z,17.70
2018-09-01T01:23:15.735Z,18.70
2018-09-01T01:24:15.719Z,19.60
2018-09-01T01:25:15.715Z,21.40
2018-09-01T01:26:15.707Z,21.40
2018-09-01T01:27:15.701Z,21.70
2018-09-01T01:28:15.682Z,22.50
2018-09-01T01:29:15.676Z,21.90
2018-09-01T01:30:15.671Z,19.50
2018-09-01T01:31:15.664Z,20.20
2018-09-01T01:32:15.648Z,19.80
2018-09-01T01:33:15.650Z,20.20
2018-09-01T01:34:15.630Z,20.80
2018-09-01T01:35:15.622Z,20.80
2018-09-01T01:36:15.614Z,20.70
2018-09-01T01:37:15.602Z,20.10
2018-09-01T01:38:15.599Z,20.00
2018-09-01T01:39:15.587Z,21.10
2018-09-01T01:40:15.578Z,20.90
2018-09-01T01:41:15.573Z,19.70
2018-09-01T01:42:15.565Z,20.80
2018-09-01T01:43:15.549Z,19.00
2018-09-01T01:44:15.539Z,18.20
2018-09-01T01:45:15.532Z,19.80
2018-09-01T01:46:15.523Z,19.70
2018-09-01T01:47:15.518Z,19.80
2018-09-01T01:48:15.503Z,19.40
2018-09-01T01:49:15.495Z,20.80
2018-09-01T01:50:15.486Z,20.20
2018-09-01T01:51:15.479Z,20.50
2018-09-01T01:52:15.467Z,19.50
2018-09-01T01:53:15.461Z,20.50
2018-09-01T01:54:15.454Z,20.20
2018-09-01T01:55:15.447Z,19.00
2018-09-01T01:56:15.431Z,20.00
2018-09-01T01:57:15.422Z,19.50
2018-09-01T01:58:15.419Z,18.80
2018-09-01T01:59:15.404Z,19.20
2018-09-01T02:00:15.396Z,19.30
2018-09-01T02:01:15.390Z,18.80
2018-09-01T02:02:15.385Z,18.80
2018-09-01T02:03:15.374Z,17.50
2018-09-01T02:04:15.366Z,15.40
2018-09-01T02:05:15.352Z,16.00
2018-09-01T02:06:15.351Z,18.30
2018-09-01T02:07:15.336Z,17.20
2018-09-01T02:08:15.326Z,18.20
2018-09-01T02:09:15.322Z,18.10
2018-09-01T02:10:15.305Z,18.80
2018-09-01T02:11:15.301Z,18.80
2018-09-01T02:12:15.289Z,19.20
2018-09-01T02:13:15.282Z,20.20
2018-09-01T02:14:15.272Z,19.00
2018-09-01T02:15:15.259Z,20.80
2018-09-01T02:16:15.253Z,19.70
2018-09-01T02:17:15.250Z,18.70
2018-09-01T02:18:15.235Z,19.50
2018-09-01T02:19:15.234Z,18.30
2018-09-01T02:20:15.219Z,18.20
2018-09-01T02:21:15.213Z,19.80
2018-09-01T02:22:15.202Z,19.80
2018-09-01T02:23:15.193Z,18.10
2018-09-01T02:24:15.181Z,17.50
2018-09-01T02:25:15.172Z,17.80
2018-09-01T02:26:15.164Z,18.50
2018-09-01T02:27:15.161Z,18.50
2018-09-01T02:28:15.145Z,17.20
2018-09-01T02:29:15.139Z,17.50
2018-09-01T02:30:15.135Z,17.70
2018-09-01T02:31:15.126Z,18.00
2018-09-01T02:32:15.111Z,18.20
2018-09-01T02:33:15.108Z,19.50
2018-09-01T02:34:15.094Z,17.90
2018-09-01T02:35:15.089Z,16.60
2018-09-01T02:36:15.082Z,17.70
2018-09-01T02:37:15.071Z,18.70
2018-09-01T02:38:15.058Z,16.90
2018-09-01T02:39:15.054Z,17.10
2018-09-01T02:40:15.043Z,16.40
2018-09-01T02:41:15.031Z,17.50
2018-09-01T02:42:15.024Z,18.30
2018-09-01T02:43:15.014Z,16.80
2018-09-01T02:44:15.014Z,17.10
2018-09-01T02:45:15.000Z,16.20
2018-09-01T02:46:14.988Z,17.40
2018-09-01T02:47:14.982Z,17.30
2018-09-01T02:48:14.970Z,17.10
2018-09-01T02:49:14.968Z,17.80
2018-09-01T02:50:14.952Z,18.10
2018-09-01T02:51:14.947Z,18.80
2018-09-01T02:52:14.934Z,17.70
2018-09-01T02:53:14.927Z,17.60
2018-09-01T02:54:14.921Z,17.30
2018-09-01T02:55:14.908Z,17.00
2018-09-01T02:56:14.900Z,17.00
2018-09-01T02:57:14.894Z,17.10
2018-09-01T02:58:14.888Z,18.70
2018-09-01T02:59:14.873Z,17.90
2018-09-01T03:00:14.867Z,17.10
2018-09-01T03:01:14.859Z,16.80
2018-09-01T03:02:14.849Z,17.00
2018-09-01T03:03:14.842Z,16.10
2018-09-01T03:04:14.836Z,15.90
2018-09-01T03:05:14.821Z,16.30
2018-09-01T03:06:14.810Z,15.20
2018-09-01T03:07:14.803Z,15.50
2018-09-01T03:08:14.798Z,15.90
2018-09-01T03:09:14.789Z,17.20
2018-09-01T03:10:14.776Z,16.80
2018-09-01T03:11:14.770Z,16.70
2018-09-01T03:12:14.767Z,17.10
2018-09-01T03:13:14.749Z,17.40
2018-09-01T03:14:14.742Z,17.50
2018-09-01T03:15:14.734Z,16.10
2018-09-01T03:16:14.729Z,16.80
2018-09-01T03:17:14.721Z,16.70
2018-09-01T03:18:14.706Z,16.90
2018-09-01T03:19:14.703Z,17.90
2018-09-01T03:20:14.688Z,19.10
2018-09-01T03:21:14.690Z,17.80
2018-09-01T03:22:14.673Z,18.40
2018-09-01T03:23:14.668Z,18.50
2018-09-01T03:24:14.656Z,18.90
2018-09-01T03:25:14.647Z,17.60
2018-09-01T03:26:14.636Z,18.40
2018-09-01T03:27:14.630Z,19.10
2018-09-01T03:28:14.618Z,20.20
2018-09-01T03:29:14.610Z,20.80
2018-09-01T03:30:14.611Z,20.50
2018-09-01T03:31:14.602Z,20.40
2018-09-01T03:32:14.584Z,19.20
2018-09-01T03:33:14.582Z,20.30
2018-09-01T03:34:14.568Z,19.10
2018-09-01T03:35:14.564Z,19.20
2018-09-01T03:36:14.558Z,19.60
2018-09-01T03:37:14.539Z,20.50
2018-09-01T03:38:14.533Z,21.60
2018-09-01T03:39:14.527Z,21.90
2018-09-01T03:40:14.512Z,21.30
2018-09-01T03:41:14.507Z,22.50
2018-09-01T03:42:14.499Z,21.90
2018-09-01T03:43:14.491Z,22.80
2018-09-01T03:44:14.482Z,22.60
2018-09-01T03:45:14.472Z,21.80
2018-09-01T03:46:14.459Z,21.30
2018-09-01T03:47:14.453Z,21.90
2018-09-01T03:48:14.443Z,21.70
2018-09-01T03:49:14.437Z,19.40
2018-09-01T03:50:14.423Z,20.50
2018-09-01T03:51:14.419Z,19.70
2018-09-01T03:52:14.409Z,18.90
2018-09-01T03:53:14.399Z,18.90
2018-09-01T03:54:14.393Z,19.20
2018-09-01T03:55:14.379Z,19.50
2018-09-01T03:56:14.367Z,18.40
2018-09-01T03:57:14.365Z,19.40
2018-09-01T03:58:14.357Z,19.00
2018-09-01T03:59:14.342Z,17.80
2018-09-01T04:00:14.331Z,19.40
2018-09-01T04:01:14.326Z,18.30
2018-09-01T04:02:14.320Z,16.80
2018-09-01T04:03:14.304Z,17.30
2018-09-01T04:04:14.299Z,16.50
2018-09-01T04:05:14.294Z,18.10
2018-09-01T04:06:14.281Z,17.40
2018-09-01T04:07:14.274Z,19.40
2018-09-01T04:08:14.269Z,19.30
2018-09-01T04:09:14.251Z,19.20
2018-09-01T04:10:14.242Z,18.10
2018-09-01T04:11:14.234Z,19.10
2018-09-01T04:12:14.228Z,18.10
2018-09-01T04:13:14.220Z,19.30
2018-09-01T04:14:14.212Z,20.00
2018-09-01T04:15:14.200Z,19.60
2018-09-01T04:16:14.195Z,18.30
2018-09-01T04:17:14.186Z,18.70
2018-09-01T04:18:14.172Z,18.70
2018-09-01T04:19:14.167Z,18.20
2018-09-01T04:20:14.153Z,17.60
2018-09-01T04:21:14.145Z,16.90
2018-09-01T04:22:14.137Z,18.20
2018-09-01T04:23:14.134Z,18.40
2018-09-01T04:24:14.124Z,19.00
2018-09-01T04:25:14.117Z,18.70
2018-09-01T04:26:14.102Z,18.90
2018-09-01T04:27:14.098Z,16.80
2018-09-01T04:28:14.082Z,17.50
2018-09-01T04:29:14.075Z,17.60
2018-09-01T04:30:14.072Z,16.70
2018-09-01T04:31:14.073Z,15.90
2018-09-01T04:32:14.055Z,15.20
2018-09-01T04:33:14.047Z,15.90
2018-09-01T04:34:14.039Z,16.30
2018-09-01T04:35:14.027Z,15.20
2018-09-01T04:36:14.013Z,15.60
2018-09-01T04:37:14.012Z,16.00
2018-09-01T04:38:14.001Z,16.30
2018-09-01T04:39:14.002Z,15.50
2018-09-01T04:40:13.982Z,16.90
2018-09-01T04:41:13.971Z,15.50
2018-09-01T04:42:13.972Z,15.70
2018-09-01T04:43:13.955Z,17.00
2018-09-01T04:44:13.945Z,17.50
2018-09-01T04:45:13.941Z,16.90
2018-09-01T04:46:13.932Z,17.40
2018-09-01T04:47:13.921Z,17.50
2018-09-01T04:48:13.914Z,16.70
2018-09-01T04:49:13.908Z,15.10
2018-09-01T04:50:13.893Z,15.90
2018-09-01T04:51:13.887Z,15.00
2018-09-01T04:52:13.876Z,15.40
2018-09-01T04:53:13.869Z,16.30
2018-09-01T04:54:13.865Z,16.50
2018-09-01T04:55:13.854Z,16.50
2018-09-01T04:56:13.842Z,16.30
2018-09-01T04:57:13.837Z,18.30
2018-09-01T04:58:13.832Z,19.30
2018-09-01T04:59:13.823Z,18.60
2018-09-01T05:00:13.809Z,16.70
2018-09-01T05:01:13.962Z,17.10
2018-09-01T05:02:13.792Z,17.70
2018-09-01T05:03:13.783Z,18.20
2018-09-01T05:04:13.772Z,19.00
2018-09-01T05:05:13.765Z,18.30
2018-09-01T05:06:13.759Z,18.00
2018-09-01T05:07:13.751Z,18.50
2018-09-01T05:08:13.739Z,18.20
2018-09-01T05:09:13.733Z,17.00
2018-09-01T05:10:13.725Z,18.00
2018-09-01T05:11:13.714Z,18.50
2018-09-01T05:12:13.706Z,19.40
2018-09-01T05:13:13.693Z,19.10
2018-09-01T05:14:13.685Z,18.50
2018-09-01T05:15:13.676Z,17.20
2018-09-01T05:16:13.668Z,16.10
2018-09-01T05:17:13.662Z,16.80
2018-09-01T05:18:13.652Z,16.10
2018-09-01T05:19:13.644Z,16.50
2018-09-01T05:20:13.635Z,17.00
2018-09-01T05:21:13.627Z,16.20
2018-09-01T05:22:13.621Z,17.20
2018-09-01T05:23:13.607Z,15.00
2018-09-01T05:24:13.607Z,15.10
2018-09-01T05:25:13.589Z,17.30
2018-09-01T05:26:13.588Z,17.60
2018-09-01T05:27:13.574Z,17.40
2018-09-01T05:28:13.567Z,16.70
2018-09-01T05:29:13.561Z,16.30
2018-09-01T05:30:13.554Z,15.50
2018-09-01T05:31:13.541Z,15.50
2018-09-01T05:32:13.531Z,15.20
2018-09-01T05:33:13.525Z,16.50
2018-09-01T05:34:13.511Z,16.20
2018-09-01T05:35:13.508Z,17.80
2018-09-01T05:36:13.496Z,16.50
2018-09-01T05:37:13.488Z,16.20
2018-09-01T05:38:13.480Z,15.10
2018-09-01T05:39:13.466Z,16.20
2018-09-01T05:40:13.463Z,16.30
2018-09-01T05:41:13.454Z,16.60
2018-09-01T05:42:13.441Z,17.60
2018-09-01T05:43:13.431Z,17.50
2018-09-01T05:44:13.427Z,16.80
2018-09-01T05:45:13.412Z,17.70
2018-09-01T05:46:13.406Z,16.30
2018-09-01T05:47:13.395Z,15.00
2018-09-01T05:48:13.392Z,15.40
2018-09-01T05:49:13.379Z,16.70
2018-09-01T05:50:13.368Z,15.80
2018-09-01T05:51:13.361Z,17.50
2018-09-01T05:52:13.350Z,18.00
2018-09-01T05:53:13.346Z,16.20
2018-09-01T05:54:13.337Z,16.60
2018-09-01T05:55:13.329Z,15.80
2018-09-01T05:56:13.324Z,16.30
2018-09-01T05:57:13.311Z,18.20
2018-09-01T05:58:13.298Z,17.20
2018-09-01T05:59:13.296Z,16.30
2018-09-01T06:00:13.282Z,17.50
2018-09-01T06:01:13.277Z,17.70
2018-09-01T06:02:13.269Z,19.00
2018-09-01T06:03:13.257Z,15.70
2018-09-01T06:04:13.245Z,16.00
2018-09-01T06:05:13.239Z,15.00
2018-09-01T06:06:13.375Z,15.30
2018-09-01T06:07:13.222Z,16.40
2018-09-01T06:08:13.208Z,14.90
2018-09-01T06:09:13.202Z,14.70
2018-09-01T06:10:13.197Z,16.50
2018-09-01T06:11:13.185Z,16.80
2018-09-01T06:12:13.178Z,16.10
2018-09-01T06:13:13.170Z,16.90
2018-09-01T06:14:13.158Z,17.90
2018-09-01T06:15:13.147Z,15.90
2018-09-01T06:16:13.141Z,16.00
2018-09-01T06:17:13.131Z,15.80
2018-09-01T06:18:13.122Z,17.40
2018-09-01T06:19:13.144Z,16.80
2018-09-01T06:20:13.106Z,17.00
2018-09-01T06:21:13.093Z,15.40
2018-09-01T06:22:13.089Z,15.10
2018-09-01T06:23:13.076Z,14.60
2018-09-01T06:24:13.068Z,14.40
2018-09-01T06:25:13.066Z,16.00
2018-09-01T06:26:13.051Z,17.90
2018-09-01T06:27:13.045Z,16.90
2018-09-01T06:28:13.032Z,16.90
2018-09-01T06:29:13.029Z,16.20
2018-09-01T06:30:13.208Z,17.20
2018-09-01T06:31:13.008Z,16.30
2018-09-01T06:32:13.004Z,16.40
2018-09-01T06:33:12.990Z,15.50
2018-09-01T06:34:12.990Z,15.90
2018-09-01T06:35:12.976Z,15.90
2018-09-01T06:36:12.962Z,16.90
2018-09-01T06:37:12.959Z,15.40
2018-09-01T06:38:12.948Z,16.50
2018-09-01T06:39:12.940Z,15.40
2018-09-01T06:40:12.935Z,14.40
2018-09-01T06:41:12.925Z,15.30
2018-09-01T06:42:12.918Z,14.00
2018-09-01T06:43:12.912Z,15.30
2018-09-01T06:44:12.895Z,14.20
2018-09-01T06:45:12.888Z,15.20
2018-09-01T06:46:12.884Z,15.10
2018-09-01T06:47:12.877Z,15.20
2018-09-01T06:48:12.866Z,14.60
2018-09-01T06:49:12.861Z,14.60
2018-09-01T06:50:12.851Z,14.30
2018-09-01T06:51:12.835Z,13.70
2018-09-01T06:52:12.826Z,15.10
2018-09-01T06:53:12.825Z,15.10
2018-09-01T06:54:12.813Z,14.60
2018-09-01T06:55:12.805Z,14.20
2018-09-01T06:56:12.797Z,14.10
2018-09-01T06:57:12.786Z,13.60
2018-09-01T06:58:12.776Z,14.80
2018-09-01T06:59:12.767Z,14.10
2018-09-01T07:00:12.757Z,14.80
2018-09-01T07:01:12.750Z,15.80
2018-09-01T07:02:12.749Z,14.70
2018-09-01T07:03:12.836Z,15.30
2018-09-01T07:04:12.726Z,14.30
2018-09-01T07:05:12.716Z,15.20
2018-09-01T07:06:12.715Z,16.60
2018-09-01T07:07:12.705Z,16.50
2018-09-01T07:08:12.689Z,15.60
2018-09-01T07:09:12.684Z,17.20
2018-09-01T07:10:12.677Z,15.80
2018-09-01T07:11:12.670Z,16.40
2018-09-01T07:12:12.655Z,16.70
2018-09-01T07:13:12.646Z,17.30
2018-09-01T07:14:12.637Z,17.80
2018-09-01T07:15:12.636Z,18.00
2018-09-01T07:16:12.621Z,16.80
2018-09-01T07:17:12.615Z,18.40
2018-09-01T07:18:12.606Z,18.00
2018-09-01T07:19:12.599Z,16.50
2018-09-01T07:20:12.586Z,16.60
2018-09-01T07:21:12.582Z,16.70
2018-09-01T07:22:12.572Z,17.40
2018-09-01T07:23:12.561Z,17.80
2018-09-01T07:24:12.554Z,18.10
2018-09-01T07:25:12.543Z,17.20
2018-09-01T07:26:12.541Z,17.70
2018-09-01T07:27:12.527Z,18.00
2018-09-01T07:28:12.522Z,17.70
2018-09-01T07:29:12.515Z,16.80
2018-09-01T07:30:12.639Z,17.50
2018-09-01T07:31:12.840Z,18.30
2018-09-01T07:32:12.490Z,18.60
2018-09-01T07:33:12.476Z,17.70
2018-09-01T07:34:12.471Z,17.90
2018-09-01T07:35:12.476Z,19.30
2018-09-01T07:36:12.464Z,18.40
2018-09-01T07:37:12.467Z,18.30
2018-09-01T07:38:12.437Z,17.80
2018-09-01T07:39:12.426Z,17.40
2018-09-01T07:40:12.421Z,16.70
2018-09-01T07:41:12.413Z,18.80
2018-09-01T07:42:12.403Z,18.80
2018-09-01T07:43:12.391Z,17.90
2018-09-01T07:44:12.387Z,18.30
2018-09-01T07:45:12.377Z,18.20
2018-09-01T07:46:12.372Z,18.20
2018-09-01T07:47:12.362Z,17.90
2018-09-01T07:48:12.353Z,20.00
2018-09-01T07:49:12.340Z,18.60
2018-09-01T07:50:12.334Z,19.00
2018-09-01T07:51:12.324Z,19.00
2018-09-01T07:52:12.315Z,17.60
2018-09-01T07:53:12.308Z,17.30
2018-09-01T07:54:12.301Z,17.80
2018-09-01T07:55:12.290Z,16.80
2018-09-01T07:56:12.381Z,18.40
2018-09-01T07:57:12.278Z,20.20
2018-09-01T07:58:12.271Z,18.60
2018-09-01T07:59:12.256Z,17.30
2018-09-01T08:00:12.254Z,20.30
2018-09-01T08:01:12.239Z,18.70
2018-09-01T08:02:12.230Z,19.50
2018-09-01T08:03:12.225Z,18.90
2018-09-01T08:04:12.217Z,17.80
2018-09-01T08:05:12.210Z,18.90
2018-09-01T08:06:12.198Z,19.80
2018-09-01T08:07:12.193Z,18.60
2018-09-01T08:08:12.181Z,18.50
2018-09-01T08:09:12.177Z,17.90
2018-09-01T08:10:12.167Z,16.40
2018-09-01T08:11:12.165Z,18.60
2018-09-01T08:12:12.152Z,19.30
2018-09-01T08:13:12.146Z,18.70
2018-09-01T08:14:12.210Z,18.90
2018-09-01T08:15:12.131Z,19.20
2018-09-01T08:16:12.117Z,20.30
2018-09-01T08:17:12.109Z,19.80
2018-09-01T08:18:12.101Z,16.70
2018-09-01T08:19:12.098Z,19.00
2018-09-01T08:20:12.084Z,20.30
2018-09-01T08:21:12.089Z,19.10
2018-09-01T08:22:12.068Z,19.80
2018-09-01T08:23:12.058Z,19.40
2018-09-01T08:24:12.050Z,19.30
2018-09-01T08:25:12.043Z,19.10
2018-09-01T08:26:12.047Z,19.20
2018-09-01T08:27:12.027Z,18.80
2018-09-01T08:28:12.017Z,19.50
2018-09-01T08:29:12.010Z,20.60
2018-09-01T08:30:12.005Z,20.50
2018-09-01T08:31:11.996Z,20.00
2018-09-01T08:32:11.989Z,19.40
2018-09-01T08:33:11.980Z,19.20
2018-09-01T08:34:11.976Z,19.10
2018-09-01T08:35:11.962Z,19.70
2018-09-01T08:36:11.951Z,19.70
2018-09-01T08:37:11.943Z,18.90
2018-09-01T08:38:11.942Z,18.80
2018-09-01T08:39:11.936Z,18.90
2018-09-01T08:40:11.938Z,18.50
2018-09-01T08:41:11.912Z,17.30
2018-09-01T08:42:11.914Z,17.50
2018-09-01T08:43:11.898Z,17.60
2018-09-01T08:44:11.886Z,19.10
2018-09-01T08:45:11.929Z,18.80
2018-09-01T08:46:11.875Z,19.00
2018-09-01T08:47:11.871Z,18.10
2018-09-01T08:48:11.857Z,18.80
2018-09-01T08:49:11.853Z,17.60
2018-09-01T08:50:11.843Z,17.70
2018-09-01T08:51:11.838Z,19.90
2018-09-01T08:52:11.823Z,19.50
2018-09-01T08:53:11.821Z,18.90
2018-09-01T08:54:11.816Z,18.10
2018-09-01T08:55:11.805Z,18.60
2018-09-01T08:56:11.792Z,18.00
2018-09-01T08:57:11.787Z,16.60
2018-09-01T08:58:11.776Z,17.70
2018-09-01T08:59:11.773Z,18.10
2018-09-01T09:00:11.778Z,17.30
2018-09-01T09:01:11.758Z,17.70
2018-09-01T09:02:11.753Z,17.30
2018-09-01T09:03:11.745Z,19.00
2018-09-01T09:04:11.724Z,18.90
2018-09-01T09:05:11.729Z,17.50
2018-09-01T09:06:11.711Z,17.50
2018-09-01T09:07:11.704Z,16.50
2018-09-01T09:08:11.695Z,16.90
2018-09-01T09:09:11.693Z,17.00
2018-09-01T09:10:11.677Z,18.60
2018-09-01T09:11:11.673Z,18.20
2018-09-01T09:12:11.665Z,18.20
2018-09-01T09:13:11.656Z,16.70
2018-09-01T09:14:11.645Z,18.00
2018-09-01T09:15:11.638Z,18.40
2018-09-01T09:16:11.627Z,17.80
2018-09-01T09:17:11.622Z,18.00
2018-09-01T09:18:11.612Z,16.90
2018-09-01T09:19:11.606Z,16.60
2018-09-01T09:20:11.595Z,17.60
2018-09-01T09:21:11.590Z,18.30
2018-09-01T09:22:11.584Z,16.70
2018-09-01T09:23:11.577Z,16.90
2018-09-01T09:24:11.562Z,16.70
2018-09-01T09:25:11.555Z,17.30
2018-09-01T09:26:11.553Z,17.20
2018-09-01T09:27:11.540Z,15.80
2018-09-01T09:28:11.535Z,16.50
2018-09-01T09:29:11.527Z,16.50
2018-09-01T09:30:11.520Z,17.40
2018-09-01T09:31:11.505Z,16.80
2018-09-01T09:32:11.496Z,17.80
2018-09-01T09:33:11.488Z,16.50
2018-09-01T09:34:11.485Z,16.50
2018-09-01T09:35:11.473Z,17.50
2018-09-01T09:36:11.463Z,17.50
2018-09-01T09:37:11.455Z,18.10
2018-09-01T09:38:11.449Z,18.50
2018-09-01T09:39:11.445Z,18.10
2018-09-01T09:40:11.439Z,17.10
2018-09-01T09:41:11.423Z,18.60
2018-09-01T09:42:11.419Z,18.10
2018-09-01T09:43:11.410Z,17.30
2018-09-01T09:44:11.406Z,18.20
2018-09-01T09:45:11.394Z,17.40
2018-09-01T09:46:11.385Z,19.00
2018-09-01T09:47:11.375Z,17.80
2018-09-01T09:48:11.368Z,19.60
2018-09-01T09:49:11.367Z,19.50
2018-09-01T09:50:11.350Z,19.50
2018-09-01T09:51:11.349Z,19.30
2018-09-01T09:52:11.335Z,19.40
2018-09-01T09:53:11.330Z,19.60
2018-09-01T09:54:11.319Z,18.50
2018-09-01T09:55:11.312Z,19.00
2018-09-01T09:56:11.303Z,20.70
2018-09-01T09:57:11.298Z,20.10
2018-09-01T09:58:11.299Z,19.80
2018-09-01T09:59:11.279Z,19.90
2018-09-01T10:00:11.275Z,21.30
2018-09-01T10:01:11.265Z,20.70
2018-09-01T10:02:11.262Z,20.60
2018-09-01T10:03:11.248Z,19.00
2018-09-01T10:04:11.246Z,17.40
2018-09-01T10:05:11.240Z,17.50
2018-09-01T10:06:11.230Z,18.50
2018-09-01T10:07:11.217Z,16.90
2018-09-01T10:08:11.207Z,17.70
2018-09-01T10:09:11.202Z,16.90
2018-09-01T10:10:11.192Z,18.60
2018-09-01T10:11:11.200Z,17.80
2018-09-01T10:12:11.189Z,18.60
2018-09-01T10:13:11.173Z,18.20
2018-09-01T10:14:11.163Z,18.70
2018-09-01T10:15:11.153Z,18.70
2018-09-01T10:16:11.144Z,18.90
2018-09-01T10:17:11.139Z,18.70
2018-09-01T10:18:11.129Z,17.60
2018-09-01T10:19:11.128Z,17.90
2018-09-01T10:20:11.228Z,18.70
2018-09-01T10:21:11.106Z,18.40
2018-09-01T10:22:11.103Z,18.80
2018-09-01T10:23:11.096Z,18.40
2018-09-01T10:24:11.082Z,18.00
2018-09-01T10:25:11.076Z,18.10
2018-09-01T10:26:11.075Z,18.30
2018-09-01T10:27:11.073Z,18.60
2018-09-01T10:28:11.055Z,17.90
2018-09-01T10:29:11.048Z,16.90
2018-09-01T10:30:11.040Z,18.30
2018-09-01T10:31:11.033Z,18.50
2018-09-01T10:32:11.024Z,18.70
2018-09-01T10:33:11.032Z,18.40
2018-09-01T10:34:11.006Z,19.40
2018-09-01T10:35:10.995Z,20.30
2018-09-01T10:36:10.989Z,18.50
2018-09-01T10:37:10.979Z,19.10
2018-09-01T10:38:10.973Z,19.00
2018-09-01T10:39:10.963Z,19.10
2018-09-01T10:40:10.962Z,18.70
2018-09-01T10:41:10.953Z,18.50
2018-09-01T10:42:10.947Z,19.30
2018-09-01T10:43:10.933Z,18.00
2018-09-01T10:44:10.923Z,19.20
2018-09-01T10:45:10.915Z,18.90
2018-09-01T10:46:10.917Z,19.40
2018-09-01T10:47:10.906Z,20.50
2018-09-01T10:48:10.901Z,19.50
2018-09-01T10:49:10.888Z,18.70
2018-09-01T10:50:10.885Z,16.80
2018-09-01T10:51:10.871Z,17.60
2018-09-01T10:52:10.865Z,16.00
2018-09-01T10:53:10.860Z,17.50
2018-09-01T10:54:10.848Z,17.90
2018-09-01T10:55:10.845Z,16.80
2018-09-01T10:56:10.831Z,17.80
2018-09-01T10:57:10.827Z,17.70
2018-09-01T10:58:10.817Z,17.10
2018-09-01T10:59:11.037Z,18.30
2018-09-01T11:00:10.802Z,17.20
2018-09-01T11:01:10.793Z,18.00
2018-09-01T11:02:10.788Z,18.50
2018-09-01T11:03:10.779Z,18.20
2018-09-01T11:04:10.770Z,17.20
2018-09-01T11:05:10.821Z,17.40
2018-09-01T11:06:10.759Z,17.70
2018-09-01T11:07:10.749Z,16.10
2018-09-01T11:08:10.738Z,15.20
2018-09-01T11:09:10.736Z,14.60
2018-09-01T11:10:10.721Z,14.40
2018-09-01T11:11:10.712Z,15.30
2018-09-01T11:12:10.711Z,16.10
2018-09-01T11:13:10.698Z,16.10
2018-09-01T11:14:10.687Z,16.50
2018-09-01T11:15:10.684Z,15.00
2018-09-01T11:16:10.678Z,16.40
2018-09-01T11:17:10.666Z,16.70
2018-09-01T11:18:10.660Z,16.10
2018-09-01T11:19:10.657Z,15.80
2018-09-01T11:20:10.741Z,15.80
2018-09-01T11:21:10.634Z,15.80
2018-09-01T11:22:10.623Z,17.10
2018-09-01T11:23:10.615Z,15.10
2018-09-01T11:24:10.608Z,16.20
2018-09-01T11:25:10.600Z,15.90
2018-09-01T11:26:10.599Z,16.30
2018-09-01T11:27:10.584Z,16.10
2018-09-01T11:28:10.717Z,16.40
2018-09-01T11:29:10.569Z,15.30
2018-09-01T11:30:10.566Z,15.60
2018-09-01T11:31:10.557Z,16.90
2018-09-01T11:32:10.547Z,16.00
2018-09-01T11:33:10.557Z,17.20
2018-09-01T11:34:10.551Z,19.30
2018-09-01T11:35:10.524Z,18.70
2018-09-01T11:36:10.594Z,19.40
2018-09-01T11:37:10.508Z,17.40
2018-09-01T11:38:10.509Z,16.80
2018-09-01T11:39:10.503Z,17.70
2018-09-01T11:40:10.589Z,18.50
2018-09-01T11:41:10.534Z,19.60
2018-09-01T11:42:10.471Z,18.50
2018-09-01T11:43:10.849Z,17.80
2018-09-01T11:44:10.461Z,17.00
2018-09-01T11:45:10.455Z,16.80
2018-09-01T11:46:10.448Z,17.30
2018-09-01T11:47:10.434Z,15.40
2018-09-01T11:48:10.431Z,15.30
2018-09-01T11:49:10.421Z,16.00
2018-09-01T11:50:10.474Z,14.40
2018-09-01T11:51:10.413Z,15.80
2018-09-01T11:52:10.449Z,16.70
2018-09-01T11:53:10.420Z,16.30
2018-09-01T11:54:10.416Z,15.30
2018-09-01T11:55:10.383Z,16.40
2018-09-01T11:56:10.377Z,15.30
2018-09-01T11:57:10.372Z,15.20
2018-09-01T11:58:10.359Z,16.70
2018-09-01T11:59:10.349Z,15.20
2018-09-01T12:00:10.340Z,15.10
2018-09-01T12:01:10.365Z,16.30
2018-09-01T12:02:10.416Z,15.80
2018-09-01T12:03:10.327Z,15.90
2018-09-01T12:04:10.318Z,14.70
2018-09-01T12:05:10.306Z,14.20
2018-09-01T12:06:10.307Z,15.00
2018-09-01T12:07:10.298Z,13.00
2018-09-01T12:08:10.286Z,12.50
2018-09-01T12:09:10.473Z,12.60
2018-09-01T12:10:10.279Z,12.80
2018-09-01T12:11:10.270Z,12.80
2018-09-01T12:12:10.262Z,12.30
2018-09-01T12:13:10.254Z,13.20
2018-09-01T12:14:10.251Z,13.00
2018-09-01T12:15:10.239Z,12.50
2018-09-01T12:16:10.241Z,12.50
2018-09-01T12:17:10.227Z,12.70
2018-09-01T12:18:10.221Z,13.60
2018-09-01T12:19:10.220Z,12.10
2018-09-01T12:20:10.208Z,12.40
2018-09-01T12:21:10.204Z,12.80
2018-09-01T12:22:10.250Z,12.60
2018-09-01T12:23:10.182Z,12.70
2018-09-01T12:24:10.187Z,13.60
2018-09-01T12:25:10.173Z,13.20
2018-09-01T12:26:10.174Z,13.10
2018-09-01T12:27:10.155Z,13.10
2018-09-01T12:28:10.232Z,13.10
2018-09-01T12:29:10.142Z,13.20
2018-09-01T12:30:10.132Z,13.00
2018-09-01T12:31:10.132Z,13.10
2018-09-01T12:32:10.127Z,12.50
2018-09-01T12:33:10.122Z,13.20
2018-09-01T12:34:10.110Z,13.10
2018-09-01T12:35:10.109Z,13.50
2018-09-01T12:36:10.108Z,12.80
2018-09-01T12:37:10.090Z,13.70
2018-09-01T12:38:10.081Z,13.70
2018-09-01T12:39:10.072Z,13.40
2018-09-01T12:40:10.063Z,13.60
2018-09-01T12:41:10.060Z,13.20
2018-09-01T12:42:10.193Z,13.30
2018-09-01T12:43:10.040Z,13.80
2018-09-01T12:44:10.031Z,12.80
2018-09-01T12:45:10.032Z,13.10
2018-09-01T12:46:10.022Z,12.60
2018-09-01T12:47:10.020Z,13.00
2018-09-01T12:48:10.010Z,13.10
2018-09-01T12:49:09.995Z,12.20
2018-09-01T12:50:09.991Z,11.60
2018-09-01T12:51:09.982Z,12.60
2018-09-01T12:52:09.978Z,12.90